Terminal Aerodrome Forecast
Issued by NWS Albany, NY

Home | Current Version | Previous Version | Text Only | Print | Product List | Glossary On
Versions: 1 2 3 4 5 6 7 8 9 10 11 12
000
FTUS41 KALY 290543
TAFPOU
TAF
KPOU 290543Z 2906/3006 14003KT P6SM SCT060
     FM291400 32007KT P6SM FEW050 SCT100
     FM291900 34006KT P6SM FEW050
     FM300100 01006KT P6SM SKC=

USA.gov is the U.S. government's official web portal to all federal, state and local government web resources and services.